Crawfordville, Florida
Current Conditions -  °F | °C
As of 11:53 AM on Thursday 30 Oct 2014 (Local Time) from KTLH Reporting Station
Thunderstorm Thunderstorm  
Wind Chill: 66°   Ceiling: 7500
Heat Index: 66°   Visibility: 10mi
Dew Point: 50°   Wind: 3mph
Humidity: 56%   Direction: 10°N
Pressure: 30.05"   Gusts: NA
Location:  30.18°N, 84.38°W
Report Text: KTLH 301553Z 01003KT 10SM -TSRA SCT035CB BKN075 19/10 A3005 RMK SLPNO TSB08RAB45 TS OHD MOV E T019401097
Loading
Personal Weather Stations






























Interactive Weather Map
Tropical Storm Tracking
New forecast layout! Learn more

10-Day Weather Forecast

Advertisements
Track Severe Weather on mobile